METAR Data
IDs: Format: Raw Decoded Include TAF

Data at: 1726 UTC 18 Feb 2019

METAR for:KSHL (Sheldon Muni, IA, US)
Text:KSHL 181715Z AUTO VRB04KT 10SM CLR M14/M16 A3044 RMK AO2
Temperature:-14.0°C ( 7°F)
Dewpoint:-16.0°C ( 3°F) [RH = 85%]
Pressure (altimeter):30.44 inches Hg (1030.9 mb)
Winds:variable direction winds at 5 MPH (4 knots; 2.1 m/s)
Visibility:10 or more sm (16+ km)
Ceiling:at least 12,000 feet AGL
Clouds:sky clear below 12,000 feet AGL
QC Flag:automated observation with no human augmentation